Time;durP1;ratioP1;P1;durP2;ratioP2;P2;SDS_P1;SDS_P2;PMS_P1;PMS_P2;Temp;Humidity;BMP_temperature;BMP_pressure;BME280_temperature;BME280_humidity;BME280_pressure;Samples;Min_cycle;Max_cycle;Signal;HPM_P1;HPM_P2
2021/04/06 00:00:37;;;;;;;10.43;2.33;;;2.80;99.90;;;;;;4805451;29;20194;-90
2021/04/06 00:03:05;;;;;;;10.07;2.57;;;2.80;99.90;;;;;;4805597;29;20667;-90
2021/04/06 00:05:33;;;;;;;8.87;1.93;;;2.80;99.90;;;;;;4805802;29;20211;-90
2021/04/06 00:08:00;;;;;;;7.90;2.10;;;3.00;99.90;;;;;;4805784;29;20191;-90
2021/04/06 00:10:40;;;;;;;21.87;8.03;;;3.10;99.90;;;;;;4805627;29;20202;-89
2021/04/06 00:13:07;;;;;;;16.83;3.80;;;3.10;99.90;;;;;;4805821;29;20197;-90
2021/04/06 00:15:35;;;;;;;16.00;3.20;;;3.20;99.90;;;;;;4806528;29;20220;-90
2021/04/06 00:18:02;;;;;;;10.40;3.00;;;3.30;99.90;;;;;;4804287;29;20298;-90
2021/04/06 00:20:31;;;;;;;14.40;3.10;;;3.50;99.90;;;;;;4804156;29;20253;-90
2021/04/06 00:22:59;;;;;;;9.57;2.43;;;3.40;99.90;;;;;;4804278;29;20182;-89
2021/04/06 00:25:29;;;;;;;10.50;2.70;;;3.30;99.90;;;;;;4803822;29;20736;-90
2021/04/06 00:27:56;;;;;;;11.07;2.93;;;3.30;99.90;;;;;;4804106;29;20678;-90
2021/04/06 00:30:28;;;;;;;7.80;2.23;;;3.10;99.90;;;;;;4804114;29;20236;-90
2021/04/06 00:33:28;;;;;;;11.47;2.43;;;3.10;99.90;;;;;;4805764;29;20215;-90
2021/04/06 00:35:57;;;;;;;10.93;2.73;;;3.10;99.90;;;;;;4780620;30;20229;-90
2021/04/06 00:38:27;;;;;;;6.67;3.43;;;3.30;99.90;;;;;;4805407;29;20183;-89
2021/04/06 00:40:56;;;;;;;10.27;3.10;;;3.40;99.90;;;;;;4812191;29;20200;-90
2021/04/06 00:43:38;;;;;;;8.40;2.97;;;3.50;99.90;;;;;;4822825;29;20191;-90
2021/04/06 00:46:07;;;;;;;6.87;2.27;;;3.50;99.90;;;;;;4822972;29;20186;-90
2021/04/06 00:48:33;;;;;;;9.03;2.20;;;3.60;99.90;;;;;;4822331;29;20200;-90
2021/04/06 00:51:11;;;;;;;6.43;2.00;;;3.70;99.90;;;;;;4821831;29;20255;-90
2021/04/06 00:53:55;;;;;;;9.17;4.53;;;3.80;99.90;;;;;;4821851;29;20195;-89
2021/04/06 00:56:30;;;;;;;10.83;4.30;;;3.80;99.90;;;;;;4821980;29;20203;-90
2021/04/06 00:58:59;;;;;;;6.43;2.53;;;3.70;99.90;;;;;;4821888;29;20683;-90
2021/04/06 01:01:34;;;;;;;4.73;2.57;;;3.50;99.90;;;;;;4821318;29;20664;-90
2021/04/06 01:04:09;;;;;;;8.83;2.50;;;3.30;99.90;;;;;;4822564;29;20188;-90
2021/04/06 01:06:58;;;;;;;9.83;2.80;;;3.20;99.90;;;;;;4822036;29;20647;-90
2021/04/06 01:09:46;;;;;;;8.40;4.53;;;3.10;99.90;;;;;;4822391;29;20203;-90
2021/04/06 01:12:14;;;;;;;12.83;2.50;;;3.20;99.90;;;;;;4824355;29;20693;-90
2021/04/06 01:14:42;;;;;;;12.03;3.27;;;3.20;99.90;;;;;;4821432;29;20272;-90
2021/04/06 01:17:11;;;;;;;9.30;3.53;;;3.20;99.90;;;;;;4821611;29;20615;-91
2021/04/06 01:19:37;;;;;;;7.43;2.70;;;3.10;99.90;;;;;;4821665;29;20196;-91
2021/04/06 01:22:08;;;;;;;14.07;3.40;;;3.20;99.90;;;;;;4821597;29;20251;-90
2021/04/06 01:24:34;;;;;;;12.73;3.43;;;3.20;99.90;;;;;;4821255;29;20194;-90
2021/04/06 01:27:02;;;;;;;16.53;3.57;;;3.20;99.90;;;;;;4821517;29;20271;-90
2021/04/06 01:29:28;;;;;;;11.00;3.30;;;3.20;99.90;;;;;;4821433;29;20192;-90
2021/04/06 01:31:56;;;;;;;13.50;3.53;;;3.40;99.90;;;;;;4818162;29;20178;-90
2021/04/06 01:34:22;;;;;;;14.70;3.17;;;3.40;99.90;;;;;;4803126;29;20708;-90
2021/04/06 01:36:50;;;;;;;8.90;3.23;;;3.30;99.90;;;;;;4803185;29;20190;-89
2021/04/06 01:39:19;;;;;;;11.73;3.13;;;3.10;99.90;;;;;;4803371;29;20182;-91
2021/04/06 01:41:46;;;;;;;19.37;3.77;;;3.20;99.90;;;;;;4802755;29;20552;-91
2021/04/06 01:44:13;;;;;;;16.20;3.87;;;3.20;99.90;;;;;;4803230;29;20183;-91
2021/04/06 01:46:43;;;;;;;11.27;3.10;;;3.10;99.90;;;;;;4803053;29;20235;-90
2021/04/06 01:49:11;;;;;;;14.60;3.80;;;3.20;99.90;;;;;;4802906;29;20221;-90
2021/04/06 01:51:38;;;;;;;13.87;4.33;;;3.20;99.90;;;;;;4802954;29;20213;-90
2021/04/06 01:54:08;;;;;;;12.07;4.40;;;3.10;99.90;;;;;;4802613;29;20224;-90
2021/04/06 01:59:36;;;;;;;15.33;4.50;;;3.10;99.90;;;;;;4798405;29;20201;-91
2021/04/06 02:02:03;;;;;;;23.93;8.37;;;3.10;99.90;;;;;;4820287;29;20278;-90
2021/04/06 02:04:30;;;;;;;18.27;5.40;;;3.10;99.90;;;;;;4821149;29;20188;-90
2021/04/06 02:06:58;;;;;;;21.53;7.40;;;3.10;99.90;;;;;;4820963;29;20280;-90
2021/04/06 02:09:25;;;;;;;21.33;7.50;;;3.10;99.90;;;;;;4820949;29;20634;-91
2021/04/06 02:11:51;;;;;;;14.47;6.00;;;3.00;99.90;;;;;;4821121;29;20246;-90
2021/04/06 02:14:19;;;;;;;12.83;4.47;;;2.90;99.90;;;;;;4823761;29;20224;-91
2021/04/06 02:16:54;;;;;;;16.43;6.50;;;2.90;99.90;;;;;;4824547;29;20216;-91
2021/04/06 02:19:34;;;;;;;10.00;3.33;;;3.00;99.90;;;;;;4824410;29;20714;-91
2021/04/06 02:22:08;;;;;;;11.00;3.23;;;2.90;99.90;;;;;;4824165;29;20283;-90
2021/04/06 02:24:35;;;;;;;16.27;6.20;;;2.80;99.90;;;;;;4821293;29;20192;-90
2021/04/06 02:27:06;;;;;;;19.87;8.53;;;2.90;99.90;;;;;;4807338;29;20196;-90
2021/04/06 02:29:43;;;;;;;7.70;2.83;;;2.90;99.90;;;;;;4807713;29;20709;-90
2021/04/06 02:32:11;;;;;;;11.20;2.83;;;2.90;99.90;;;;;;4807418;29;20209;-91
2021/04/06 02:34:39;;;;;;;12.83;4.53;;;3.00;99.90;;;;;;4806268;29;20654;-91
2021/04/06 02:37:06;;;;;;;9.07;3.10;;;3.10;99.90;;;;;;4806043;29;20185;-90
2021/04/06 02:39:38;;;;;;;8.67;2.63;;;3.10;99.90;;;;;;4805801;29;20279;-91
2021/04/06 02:42:22;;;;;;;12.83;2.40;;;3.40;99.90;;;;;;4805911;29;20280;-90
2021/04/06 02:44:49;;;;;;;17.53;2.70;;;3.40;99.90;;;;;;4817465;29;20189;-91
2021/04/06 02:47:15;;;;;;;12.87;2.93;;;3.50;99.90;;;;;;4824188;29;20181;-91
2021/04/06 02:49:41;;;;;;;11.03;3.10;;;3.50;99.90;;;;;;4815457;29;20195;-89
2021/04/06 02:52:07;;;;;;;10.60;2.70;;;3.50;99.90;;;;;;4807754;29;21655;-91
2021/04/06 02:54:34;;;;;;;18.80;3.03;;;3.50;99.90;;;;;;4823620;29;20232;-91
2021/04/06 02:57:16;;;;;;;11.10;3.03;;;3.50;99.90;;;;;;4823780;29;20637;-90
2021/04/06 02:59:42;;;;;;;17.33;6.00;;;3.60;99.90;;;;;;4816159;29;20254;-90
2021/04/06 03:02:07;;;;;;;19.73;3.77;;;3.40;99.90;;;;;;4805773;29;20215;-90
2021/04/06 03:04:33;;;;;;;22.43;3.87;;;3.30;99.90;;;;;;4805422;29;20218;-90
2021/04/06 03:06:59;;;;;;;15.17;5.87;;;3.10;99.90;;;;;;4805711;29;20659;-91
2021/04/06 03:09:26;;;;;;;12.30;3.67;;;3.00;99.90;;;;;;4805746;29;20195;-90
2021/04/06 03:11:57;;;;;;;22.37;3.60;;;3.00;99.90;;;;;;4805421;29;20185;-91
2021/04/06 03:14:26;;;;;;;18.97;5.73;;;3.10;99.90;;;;;;4805391;29;20251;-91
2021/04/06 03:16:52;;;;;;;17.33;3.07;;;3.10;99.90;;;;;;4805556;29;20550;-91
2021/04/06 03:19:28;;;;;;;12.57;4.03;;;3.10;99.90;;;;;;4805589;29;20213;-91
2021/04/06 03:21:56;;;;;;;13.47;3.00;;;3.10;99.90;;;;;;4805592;29;20194;-90
2021/04/06 03:24:22;;;;;;;13.10;3.00;;;3.10;99.90;;;;;;4804948;29;20188;-91
2021/04/06 03:26:48;;;;;;;5.17;2.33;;;3.20;99.90;;;;;;4805127;29;20186;-90
2021/04/06 03:29:17;;;;;;;14.17;2.73;;;3.20;99.90;;;;;;4808227;29;20650;-91
2021/04/06 03:31:44;;;;;;;13.17;2.43;;;3.30;99.90;;;;;;4822966;29;20677;-90
2021/04/06 03:34:11;;;;;;;13.83;2.30;;;3.30;99.90;;;;;;4824513;29;20248;-91
2021/04/06 03:36:38;;;;;;;15.33;2.57;;;3.30;99.90;;;;;;4824425;29;20607;-91
2021/04/06 03:39:07;;;;;;;11.17;2.13;;;3.20;99.90;;;;;;4823017;29;20193;-91
2021/04/06 03:41:34;;;;;;;11.63;2.33;;;3.10;99.90;;;;;;4806433;29;20201;-91
2021/04/06 03:44:05;;;;;;;13.00;2.33;;;3.10;99.90;;;;;;4806193;29;20604;-91
2021/04/06 03:46:33;;;;;;;15.77;2.20;;;3.00;99.90;;;;;;4806065;29;20208;-91
2021/04/06 03:49:26;;;;;;;6.80;1.97;;;3.00;99.90;;;;;;4806263;29;20284;-91
2021/04/06 03:51:53;;;;;;;6.67;1.80;;;2.90;99.90;;;;;;4805759;29;20213;-91
2021/04/06 03:54:48;;;;;;;15.20;2.60;;;3.00;99.90;;;;;;4805966;29;20300;-91
2021/04/06 03:57:23;;;;;;;16.27;2.43;;;3.00;99.90;;;;;;4806236;29;20659;-91
2021/04/06 03:59:49;;;;;;;15.60;2.83;;;3.00;99.90;;;;;;4807841;29;20189;-91
2021/04/06 04:02:15;;;;;;;8.27;2.73;;;3.00;99.90;;;;;;4808696;29;20293;-89
2021/04/06 04:04:42;;;;;;;16.27;3.10;;;2.90;99.90;;;;;;4807555;29;20188;-91
2021/04/06 04:07:08;;;;;;;21.77;4.27;;;3.00;99.90;;;;;;4807920;29;20712;-91
2021/04/06 04:09:34;;;;;;;18.13;5.07;;;3.00;99.90;;;;;;4807495;29;20190;-89
2021/04/06 04:12:00;;;;;;;28.53;9.30;;;3.00;99.90;;;;;;4819417;29;20207;-90
2021/04/06 04:14:25;;;;;;;19.10;5.10;;;3.10;99.90;;;;;;4804694;29;20659;-90
2021/04/06 04:16:53;;;;;;;17.13;4.80;;;3.10;99.90;;;;;;4803977;29;20185;-90
2021/04/06 04:19:19;;;;;;;18.97;4.53;;;3.00;99.90;;;;;;4805837;29;20203;-90
2021/04/06 04:21:45;;;;;;;15.10;4.27;;;3.00;99.90;;;;;;4821795;29;20189;-89
2021/04/06 04:24:11;;;;;;;7.03;2.90;;;2.90;99.90;;;;;;4823781;29;20187;-89
2021/04/06 04:26:38;;;;;;;8.93;2.50;;;2.80;99.90;;;;;;4823536;29;20725;-89
2021/04/06 04:29:04;;;;;;;11.23;5.80;;;2.60;99.90;;;;;;4823500;29;20179;-89
2021/04/06 04:31:30;;;;;;;11.37;2.80;;;2.50;99.90;;;;;;4806157;29;20279;-89
2021/04/06 04:33:55;;;;;;;10.97;2.50;;;2.60;99.90;;;;;;4804521;29;20192;-89
2021/04/06 04:36:21;;;;;;;10.33;4.73;;;2.70;99.90;;;;;;4803443;29;20185;-89
2021/04/06 04:38:47;;;;;;;9.83;1.80;;;2.90;99.90;;;;;;4804094;29;20280;-90
2021/04/06 04:41:12;;;;;;;9.83;2.93;;;2.90;99.90;;;;;;4803892;29;20193;-89
2021/04/06 04:43:38;;;;;;;7.57;2.00;;;2.80;99.90;;;;;;4804055;29;20182;-90
2021/04/06 04:46:04;;;;;;;12.47;4.47;;;2.90;99.90;;;;;;4803819;29;20225;-91
2021/04/06 04:48:30;;;;;;;7.30;2.77;;;3.00;99.90;;;;;;4803826;29;20194;-91
2021/04/06 04:50:56;;;;;;;7.97;2.23;;;2.90;99.90;;;;;;4813212;29;20213;-91
2021/04/06 04:53:21;;;;;;;4.83;1.40;;;2.90;99.90;;;;;;4822134;29;20195;-91
2021/04/06 04:55:47;;;;;;;9.10;2.73;;;2.90;99.90;;;;;;4822164;29;20225;-91
2021/04/06 04:58:13;;;;;;;6.63;1.70;;;2.80;99.90;;;;;;4822869;29;20187;-91
2021/04/06 05:00:38;;;;;;;7.43;2.40;;;2.80;99.90;;;;;;4813619;29;20272;-91
2021/04/06 05:03:04;;;;;;;13.17;1.93;;;2.80;99.90;;;;;;4803764;29;20554;-91
2021/04/06 05:05:30;;;;;;;14.43;2.20;;;2.70;99.90;;;;;;4803693;29;20233;-91
2021/04/06 05:07:56;;;;;;;6.80;1.87;;;2.70;99.90;;;;;;4813127;29;20199;-92
2021/04/06 05:10:21;;;;;;;6.50;1.83;;;2.90;99.90;;;;;;4821238;29;20305;-92
2021/04/06 05:12:48;;;;;;;7.60;2.57;;;2.90;99.90;;;;;;4821589;29;20265;-92
2021/04/06 05:15:15;;;;;;;10.83;3.03;;;2.90;99.90;;;;;;4821813;29;20235;-92
2021/04/06 05:17:41;;;;;;;8.57;1.53;;;2.90;99.90;;;;;;4821457;29;20186;-92
2021/04/06 05:20:08;;;;;;;7.30;2.27;;;2.90;99.90;;;;;;4821494;29;20206;-91
2021/04/06 05:22:34;;;;;;;6.87;1.47;;;2.80;99.90;;;;;;4822110;29;20180;-92
2021/04/06 05:25:02;;;;;;;3.83;1.27;;;2.70;99.90;;;;;;5037832;23;20764;-92
2021/04/06 05:27:28;;;;;;;9.20;2.43;;;2.80;99.90;;;;;;4862977;29;20194;-93
2021/04/06 05:29:55;;;;;;;5.10;2.10;;;2.80;99.90;;;;;;4862296;29;20282;-93
2021/04/06 05:32:21;;;;;;;10.73;2.83;;;2.70;99.90;;;;;;4862373;29;20716;-92
2021/04/06 05:34:46;;;;;;;5.83;1.60;;;2.60;99.90;;;;;;4861042;29;20207;-93
2021/04/06 05:37:13;;;;;;;8.33;2.40;;;2.60;99.90;;;;;;4859963;29;20189;-92
2021/04/06 05:39:39;;;;;;;9.17;2.03;;;2.60;99.90;;;;;;4860641;29;20194;-92
2021/04/06 05:42:07;;;;;;;12.80;3.10;;;2.70;99.90;;;;;;4860021;29;20187;-92
2021/04/06 05:44:35;;;;;;;6.17;1.80;;;2.70;99.90;;;;;;4860656;29;20254;-92
2021/04/06 05:47:03;;;;;;;8.47;2.30;;;2.80;99.90;;;;;;4860420;29;20223;-92
2021/04/06 05:49:33;;;;;;;10.13;2.30;;;2.80;99.90;;;;;;4860793;29;20191;-92
2021/04/06 05:51:59;;;;;;;4.37;1.90;;;2.70;99.90;;;;;;4860708;29;20238;-93
2021/04/06 05:54:28;;;;;;;8.07;2.67;;;2.90;99.90;;;;;;4860587;29;20301;-92
2021/04/06 05:56:53;;;;;;;8.63;2.10;;;2.90;99.90;;;;;;4860983;29;20302;-92
2021/04/06 05:59:19;;;;;;;8.83;2.30;;;2.90;99.90;;;;;;4860501;29;20216;-92
2021/04/06 06:01:46;;;;;;;11.00;2.70;;;2.80;99.90;;;;;;4860395;29;20179;-92
2021/04/06 06:04:15;;;;;;;6.80;2.57;;;2.90;99.90;;;;;;4860729;29;20194;-93
2021/04/06 06:06:42;;;;;;;6.63;2.23;;;2.90;99.90;;;;;;4860771;29;20188;-92
2021/04/06 06:09:10;;;;;;;7.13;1.90;;;3.00;99.90;;;;;;4860860;29;20186;-92
2021/04/06 06:11:55;;;;;;;13.03;2.90;;;3.10;99.90;;;;;;4860195;29;20199;-93
2021/04/06 06:14:37;;;;;;;13.33;3.27;;;3.10;99.90;;;;;;4860286;29;20641;-92
2021/04/06 06:17:19;;;;;;;10.67;2.83;;;2.80;99.90;;;;;;4860757;29;20186;-91
2021/04/06 06:19:48;;;;;;;9.07;3.00;;;2.40;99.90;;;;;;4862004;29;20183;-92
2021/04/06 06:22:20;;;;;;;5.40;2.80;;;2.40;99.90;;;;;;4861292;29;20199;-92
2021/04/06 06:24:49;;;;;;;7.93;2.37;;;2.30;99.90;;;;;;4861573;29;20318;-92
2021/04/06 06:27:39;;;;;;;4.97;2.27;;;2.40;99.90;;;;;;4862046;29;20266;-92
2021/04/06 06:30:28;;;;;;;7.53;1.83;;;2.50;99.90;;;;;;4862100;29;20210;-93
2021/04/06 06:33:17;;;;;;;8.87;2.30;;;2.60;99.90;;;;;;4866753;29;20195;-92
2021/04/06 06:35:45;;;;;;;6.87;1.70;;;2.70;99.90;;;;;;4867895;29;20659;-93
2021/04/06 06:38:21;;;;;;;12.43;1.87;;;2.90;99.90;;;;;;4867036;29;20231;-92
2021/04/06 06:40:49;;;;;;;7.53;2.00;;;3.00;99.90;;;;;;4866373;29;20247;-92
2021/04/06 06:43:18;;;;;;;12.43;2.50;;;3.20;99.90;;;;;;4864199;29;20178;-92
2021/04/06 06:45:46;;;;;;;9.80;3.13;;;3.30;99.90;;;;;;4861919;29;20228;-92
2021/04/06 06:48:25;;;;;;;6.37;1.83;;;3.30;99.90;;;;;;4861315;29;20195;-93
2021/04/06 06:50:54;;;;;;;9.53;1.93;;;3.30;99.90;;;;;;4861597;29;20213;-92
2021/04/06 06:53:39;;;;;;;11.17;2.00;;;3.40;99.90;;;;;;4861729;29;20201;-92
2021/04/06 06:56:09;;;;;;;5.40;1.33;;;3.40;99.90;;;;;;4861796;29;20218;-93
2021/04/06 06:58:39;;;;;;;5.50;1.40;;;3.40;99.90;;;;;;4861538;29;20291;-92
2021/04/06 07:01:06;;;;;;;7.17;1.97;;;3.40;99.90;;;;;;4864276;29;20497;-92
2021/04/06 07:03:33;;;;;;;7.40;1.77;;;3.40;99.90;;;;;;4864398;29;20210;-92
2021/04/06 07:06:22;;;;;;;10.90;1.50;;;3.50;99.90;;;;;;4863980;29;20226;-93
2021/04/06 07:08:48;;;;;;;8.43;1.93;;;3.60;99.90;;;;;;4863575;29;20185;-92
2021/04/06 07:11:15;;;;;;;9.33;2.13;;;3.50;99.90;;;;;;4863388;29;20215;-92
2021/04/06 07:13:44;;;;;;;9.00;2.33;;;3.50;99.90;;;;;;4845132;29;20227;-92
2021/04/06 07:16:14;;;;;;;9.00;2.03;;;3.40;99.90;;;;;;4845354;29;20277;-92
2021/04/06 07:18:42;;;;;;;10.83;2.10;;;3.30;99.90;;;;;;4845831;29;20674;-92
2021/04/06 07:21:10;;;;;;;7.03;1.47;;;3.10;99.90;;;;;;4844691;29;20526;-92
2021/04/06 07:23:56;;;;;;;5.67;1.50;;;2.80;99.90;;;;;;4861216;29;20743;-90
2021/04/06 07:26:23;;;;;;;6.67;1.20;;;2.40;99.90;;;;;;4862849;29;20206;-91
2021/04/06 07:28:49;;;;;;;5.20;1.57;;;2.30;99.90;;;;;;4863309;29;20192;-91
2021/04/06 07:31:16;;;;;;;12.53;2.47;;;2.20;99.90;;;;;;4863052;29;20187;-91
2021/04/06 07:33:44;;;;;;;7.70;1.83;;;2.30;99.90;;;;;;4862803;29;20189;-90
2021/04/06 07:36:18;;;;;;;10.27;2.20;;;2.30;99.90;;;;;;4862979;29;20183;-90
2021/04/06 07:38:47;;;;;;;5.07;1.80;;;2.50;99.90;;;;;;4863237;29;20189;-92
2021/04/06 07:41:16;;;;;;;7.57;1.90;;;2.70;99.90;;;;;;4862407;29;20183;-91
2021/04/06 07:43:42;;;;;;;3.00;1.40;;;2.90;99.90;;;;;;4862396;29;20248;-90
2021/04/06 07:46:08;;;;;;;8.10;2.23;;;3.10;99.90;;;;;;4862580;29;20257;-91
2021/04/06 07:48:52;;;;;;;11.13;2.50;;;3.10;99.90;;;;;;4863678;29;20185;-92
2021/04/06 07:51:27;;;;;;;9.50;2.90;;;3.20;99.90;;;;;;4864479;29;20213;-91
2021/04/06 07:53:56;;;;;;;9.23;3.03;;;3.20;99.90;;;;;;4863784;29;20202;-92
2021/04/06 07:56:45;;;;;;;9.10;3.20;;;3.10;99.90;;;;;;4864177;29;20266;-92
2021/04/06 07:59:20;;;;;;;9.33;3.60;;;3.00;99.90;;;;;;4864282;29;20186;-92
2021/04/06 08:01:55;;;;;;;12.30;3.37;;;2.80;99.90;;;;;;4863754;29;20246;-92
2021/04/06 08:04:23;;;;;;;7.63;3.20;;;2.80;99.90;;;;;;4863088;29;20222;-92
2021/04/06 08:06:51;;;;;;;6.97;3.33;;;3.10;99.90;;;;;;4862357;29;20683;-93
2021/04/06 08:09:37;;;;;;;7.87;3.47;;;3.20;99.90;;;;;;4862276;29;20542;-92
2021/04/06 08:12:11;;;;;;;6.60;3.07;;;3.20;99.90;;;;;;4861278;29;20189;-93
2021/04/06 08:14:51;;;;;;;10.00;3.40;;;3.40;99.90;;;;;;4862417;29;20185;-92
2021/04/06 08:17:26;;;;;;;8.80;3.30;;;3.70;99.90;;;;;;4862188;29;20189;-92
2021/04/06 08:19:56;;;;;;;9.77;2.80;;;3.90;99.90;;;;;;4862927;29;20227;-93
2021/04/06 08:22:29;;;;;;;7.23;2.60;;;4.00;99.90;;;;;;4864510;29;20589;-93
2021/04/06 08:25:23;;;;;;;6.10;1.90;;;4.00;99.90;;;;;;4864610;29;20274;-92
2021/04/06 08:27:52;;;;;;;5.40;1.50;;;3.80;99.90;;;;;;4863859;29;20184;-92
2021/04/06 08:30:27;;;;;;;2.33;1.00;;;3.50;99.90;;;;;;4863621;29;20548;-92
2021/04/06 08:32:57;;;;;;;2.70;1.00;;;3.40;99.90;;;;;;4863306;29;20547;-92
2021/04/06 08:35:45;;;;;;;1.60;1.30;;;3.50;99.90;;;;;;4862636;29;20277;-93
2021/04/06 08:38:29;;;;;;;10.30;1.43;;;3.60;99.90;;;;;;4862066;29;20183;-93
2021/04/06 08:41:10;;;;;;;6.00;1.70;;;3.60;99.90;;;;;;4861284;29;20638;-93
2021/04/06 08:44:28;;;;;;;6.77;1.10;;;3.80;99.90;;;;;;4862007;29;20194;-93
2021/04/06 08:47:16;;;;;;;5.67;1.53;;;4.20;99.90;;;;;;4851555;29;20194;-93
2021/04/06 08:58:11;;;;;;;5.57;2.80;;;4.60;99.90;;;;;;5033575;23;20240;-92
2021/04/06 09:01:02;;;;;;;8.50;3.57;;;4.20;99.90;;;;;;4881269;29;20185;-93
2021/04/06 09:03:38;;;;;;;10.80;3.07;;;4.30;99.90;;;;;;4862750;29;20193;-93
2021/04/06 09:06:42;;;;;;;9.00;3.40;;;4.50;99.90;;;;;;4861297;29;20221;-94
2021/04/06 16:16:57;;;;;;;4.43;1.13;;;5.70;99.90;;;;;;4874683;29;20210;-92
2021/04/06 16:19:32;;;;;;;6.03;1.60;;;5.30;99.90;;;;;;4890911;29;20193;-93
2021/04/06 16:22:45;;;;;;;;;;;;;;;;;;;;;
2021/04/06 16:30:05;;;;;;;5.63;1.70;;;4.30;99.90;;;;;;4831054;29;20195;-93
2021/04/06 16:36:44;;;;;;;2.47;1.27;;;4.30;99.90;;;;;;4831455;29;20743;-93
2021/04/06 16:51:05;;;;;;;6.93;2.30;;;4.20;99.90;;;;;;4859473;29;20194;-92
2021/04/06 16:53:39;;;;;;;3.77;1.90;;;4.00;99.90;;;;;;4860102;29;20191;-92
2021/04/06 16:56:09;;;;;;;6.80;2.23;;;4.10;99.90;;;;;;4852792;29;20190;-92
2021/04/06 16:58:34;;;;;;;6.03;2.10;;;4.10;99.90;;;;;;4853793;29;20182;-91
2021/04/06 17:01:01;;;;;;;9.20;2.67;;;4.20;99.90;;;;;;4854806;29;20190;-91
2021/04/06 17:03:27;;;;;;;5.73;2.67;;;4.10;99.90;;;;;;4879487;29;20194;-92
2021/04/06 17:05:53;;;;;;;7.50;4.17;;;3.70;99.90;;;;;;4865281;29;20223;-92
2021/04/06 17:08:19;;;;;;;7.30;3.80;;;3.70;99.90;;;;;;4868241;29;20345;-92
2021/04/06 17:10:45;;;;;;;7.27;4.10;;;3.80;99.90;;;;;;4861538;29;20261;-91
2021/04/06 17:13:11;;;;;;;5.13;2.80;;;3.50;99.90;;;;;;4859809;29;20546;-91
2021/04/06 17:15:37;;;;;;;6.60;3.83;;;3.30;99.90;;;;;;4860009;29;20190;-91
2021/04/06 17:18:03;;;;;;;6.37;2.50;;;3.10;99.90;;;;;;4857483;29;20268;-91
2021/04/06 17:20:29;;;;;;;5.20;3.27;;;2.90;99.90;;;;;;4858364;29;20727;-91
2021/04/06 17:22:55;;;;;;;2.97;2.20;;;2.80;99.90;;;;;;4855407;29;20282;-91
2021/04/06 17:25:23;;;;;;;2.87;1.70;;;2.90;99.90;;;;;;4859770;29;20210;-91
2021/04/06 17:27:51;;;;;;;3.20;1.67;;;3.10;99.90;;;;;;4856453;29;20198;-91
2021/04/06 17:30:27;;;;;;;6.07;1.73;;;3.20;99.90;;;;;;4856247;29;20224;-92
2021/04/06 17:32:55;;;;;;;7.13;2.90;;;3.40;99.90;;;;;;4852765;29;21200;-91
2021/04/06 17:35:22;;;;;;;5.57;3.20;;;3.40;99.90;;;;;;4860366;29;20180;-91
2021/04/06 17:37:48;;;;;;;9.70;3.37;;;3.30;99.90;;;;;;4851865;29;20194;-91
2021/04/06 17:40:21;;;;;;;7.40;4.00;;;3.40;99.90;;;;;;4857102;29;20224;-91
2021/04/06 17:42:47;;;;;;;7.27;4.10;;;3.20;99.90;;;;;;4858585;29;20210;-92
2021/04/06 17:45:15;;;;;;;8.10;3.70;;;3.20;99.90;;;;;;4861006;29;20218;-91
2021/04/06 17:47:41;;;;;;;8.63;4.43;;;3.20;99.90;;;;;;4860248;29;20242;-92
2021/04/06 17:50:08;;;;;;;8.57;4.03;;;3.10;99.90;;;;;;4861719;29;20226;-91
2021/04/06 17:52:34;;;;;;;7.70;3.73;;;2.90;99.90;;;;;;4863145;29;20192;-91
2021/04/06 17:55:00;;;;;;;6.57;3.17;;;2.70;99.90;;;;;;4860927;29;20191;-92
2021/04/06 17:57:26;;;;;;;5.63;2.93;;;2.70;99.90;;;;;;4862127;29;20190;-92
2021/04/06 17:59:53;;;;;;;5.10;2.47;;;2.80;99.90;;;;;;4860649;29;20334;-92
2021/04/06 18:02:19;;;;;;;6.30;2.63;;;2.90;99.90;;;;;;4860356;29;20191;-92
2021/04/06 18:04:45;;;;;;;5.83;3.27;;;2.90;99.90;;;;;;4858573;29;20219;-90
2021/04/06 18:07:13;;;;;;;5.90;3.17;;;2.90;99.90;;;;;;4859910;29;20632;-92
2021/04/06 18:09:39;;;;;;;4.77;3.27;;;2.80;99.90;;;;;;4859689;29;20282;-92
2021/04/06 18:12:06;;;;;;;9.30;3.63;;;2.70;99.90;;;;;;4860535;29;20202;-92
2021/04/06 18:14:34;;;;;;;4.40;2.77;;;2.60;99.90;;;;;;4862192;29;20198;-92
2021/04/06 18:17:01;;;;;;;4.23;2.93;;;2.60;99.90;;;;;;4856792;29;20278;-92
2021/04/06 18:19:29;;;;;;;8.23;3.17;;;2.60;99.90;;;;;;4861376;29;20222;-92
2021/04/06 18:21:58;;;;;;;4.07;3.13;;;2.70;99.90;;;;;;4876637;29;20202;-92
2021/04/06 18:24:26;;;;;;;3.33;2.70;;;2.80;99.90;;;;;;4861394;29;20188;-92
2021/04/06 18:26:54;;;;;;;4.17;2.67;;;2.60;99.90;;;;;;4858002;29;20272;-92
2021/04/06 18:29:20;;;;;;;5.97;3.13;;;2.60;99.90;;;;;;4853746;29;20277;-91
2021/04/06 18:31:47;;;;;;;7.27;3.30;;;2.50;99.90;;;;;;4859996;29;20198;-92
2021/04/06 18:34:13;;;;;;;8.47;3.77;;;2.50;99.90;;;;;;4859202;29;20574;-92
2021/04/06 18:36:40;;;;;;;10.00;3.97;;;2.50;99.90;;;;;;4859848;29;20186;-91
2021/04/06 18:39:07;;;;;;;6.53;4.30;;;2.60;99.90;;;;;;4861622;29;20179;-91
2021/04/06 18:41:34;;;;;;;8.00;5.20;;;2.70;99.90;;;;;;4860796;29;20183;-92
2021/04/06 18:44:02;;;;;;;8.53;4.60;;;2.80;99.90;;;;;;4859470;29;20203;-92
2021/04/06 18:46:28;;;;;;;12.07;6.17;;;2.80;99.90;;;;;;4859592;29;20270;-92
2021/04/06 18:48:53;;;;;;;13.87;6.70;;;2.90;99.90;;;;;;4858326;29;20220;-92
2021/04/06 18:51:21;;;;;;;13.47;7.17;;;3.00;99.90;;;;;;4859714;29;20195;-92
2021/04/06 18:53:46;;;;;;;10.67;6.57;;;3.00;99.90;;;;;;4850364;29;20189;-90
2021/04/06 18:56:13;;;;;;;12.33;6.53;;;2.80;99.90;;;;;;4862567;29;20198;-91
2021/04/06 18:58:38;;;;;;;8.80;6.50;;;2.90;99.90;;;;;;4863321;29;20641;-91
2021/04/06 19:01:06;;;;;;;15.73;6.80;;;3.00;99.90;;;;;;4863305;29;20194;-89
2021/04/06 19:03:32;;;;;;;13.20;7.63;;;3.10;99.90;;;;;;4865860;29;20194;-90
2021/04/06 19:06:00;;;;;;;13.43;7.33;;;3.00;99.90;;;;;;4865580;29;20222;-90
2021/04/06 19:08:26;;;;;;;15.00;7.33;;;2.90;99.90;;;;;;4863850;29;20186;-91
2021/04/06 19:10:55;;;;;;;16.67;7.37;;;2.90;99.90;;;;;;4863153;29;20184;-90
2021/04/06 19:13:23;;;;;;;19.27;6.43;;;2.80;99.90;;;;;;4862246;29;20183;-89
2021/04/06 19:15:52;;;;;;;18.87;6.87;;;2.70;99.90;;;;;;4861944;29;20191;-89
2021/04/06 19:18:21;;;;;;;9.17;4.03;;;2.60;99.90;;;;;;4862516;29;20229;-90
2021/04/06 19:20:50;;;;;;;4.67;1.73;;;2.60;99.90;;;;;;4861439;29;20183;-89
2021/04/06 19:23:18;;;;;;;3.10;1.73;;;2.50;99.90;;;;;;4862748;29;20191;-89
2021/04/06 19:25:44;;;;;;;6.73;1.93;;;2.30;99.90;;;;;;4862450;29;20345;-89
2021/04/06 19:28:10;;;;;;;3.10;1.50;;;2.30;99.90;;;;;;4878561;29;20217;-89
2021/04/06 19:30:36;;;;;;;4.47;1.47;;;2.40;99.90;;;;;;4869088;29;20222;-89
2021/04/06 19:33:05;;;;;;;3.27;1.40;;;2.40;99.90;;;;;;4886402;29;20183;-90
2021/04/06 19:35:31;;;;;;;1.87;0.80;;;2.40;99.90;;;;;;4877543;29;20218;-90
2021/04/06 19:37:58;;;;;;;2.27;1.00;;;2.50;99.90;;;;;;4875446;29;20224;-90
2021/04/06 19:40:25;;;;;;;1.57;0.70;;;2.50;99.90;;;;;;4864630;29;20240;-90
2021/04/06 19:42:51;;;;;;;1.27;0.60;;;2.50;99.90;;;;;;4862561;29;20699;-91
2021/04/06 19:45:19;;;;;;;2.60;0.80;;;2.40;99.90;;;;;;4862290;29;20214;-90
2021/04/06 19:47:45;;;;;;;3.33;1.03;;;2.40;99.90;;;;;;4860196;29;20206;-90
2021/04/06 19:50:13;;;;;;;3.27;0.70;;;2.50;99.90;;;;;;4870134;29;20247;-90
2021/04/06 19:52:41;;;;;;;3.00;0.60;;;2.60;99.90;;;;;;4864504;29;20182;-91
2021/04/06 19:55:08;;;;;;;3.10;0.80;;;2.40;99.90;;;;;;4867149;29;20287;-90
2021/04/06 19:57:34;;;;;;;1.53;0.80;;;2.40;99.90;;;;;;4863170;29;20182;-90
2021/04/06 20:00:00;;;;;;;1.50;0.50;;;2.40;99.90;;;;;;4860183;29;20308;-90
2021/04/06 20:02:25;;;;;;;1.63;0.50;;;2.50;99.90;;;;;;4861794;29;20249;-90
2021/04/06 20:04:51;;;;;;;2.87;0.57;;;2.60;99.90;;;;;;4862594;29;20222;-90
2021/04/06 20:07:17;;;;;;;1.53;0.60;;;2.60;99.90;;;;;;4857587;29;20183;-90
2021/04/06 20:09:44;;;;;;;2.87;0.80;;;2.70;99.90;;;;;;4875769;29;20194;-88
2021/04/06 20:12:11;;;;;;;5.50;0.70;;;2.60;99.90;;;;;;4864490;29;20256;-91
2021/04/06 20:14:36;;;;;;;5.40;0.60;;;2.60;99.90;;;;;;4864064;29;20210;-89
2021/04/06 20:17:03;;;;;;;1.13;0.93;;;2.70;99.90;;;;;;4865393;29;20190;-89
2021/04/06 20:19:29;;;;;;;4.20;0.97;;;2.80;99.90;;;;;;4868706;29;20212;-89
2021/04/06 20:21:57;;;;;;;1.83;0.90;;;2.80;99.90;;;;;;4869325;29;20190;-88
2021/04/06 20:24:25;;;;;;;2.97;0.93;;;2.90;99.90;;;;;;4863914;29;20246;-89
2021/04/06 20:26:51;;;;;;;2.47;0.90;;;2.90;99.90;;;;;;4869886;29;20193;-89
2021/04/06 20:29:19;;;;;;;2.10;0.90;;;2.90;99.90;;;;;;4864688;29;20191;-89
2021/04/06 20:31:49;;;;;;;2.60;0.90;;;2.90;99.90;;;;;;4864915;29;20544;-89
2021/04/06 20:34:15;;;;;;;5.70;1.17;;;3.00;99.90;;;;;;4870633;29;20190;-89
2021/04/06 20:36:44;;;;;;;2.93;2.20;;;3.10;99.90;;;;;;4869577;29;20344;-90
2021/04/06 20:39:11;;;;;;;4.03;0.80;;;3.00;99.90;;;;;;4868059;29;20198;-89
2021/04/06 20:41:39;;;;;;;5.17;0.97;;;3.20;99.90;;;;;;4863672;29;20250;-91
2021/04/06 20:44:06;;;;;;;6.00;2.37;;;3.20;99.90;;;;;;4869800;29;20175;-90
2021/04/06 20:46:32;;;;;;;4.63;1.13;;;3.10;99.90;;;;;;4866218;29;20241;-91
2021/04/06 20:48:59;;;;;;;4.87;1.00;;;3.20;99.90;;;;;;4866027;29;20218;-90